Time;durP1;ratioP1;P1;durP2;ratioP2;P2;SDS_P1;SDS_P2;PMS_P1;PMS_P2;Temp;Humidity;BMP_temperature;BMP_pressure;BME280_temperature;BME280_humidity;BME280_pressure;Samples;Min_cycle;Max_cycle;Signal;HPM_P1;HPM_P2
2024/04/17 00:01:21;;;;;;;4.57;3.53;;;6.10;99.90;;;;;;5337655;26;20008;-56
2024/04/17 00:03:47;;;;;;;4.80;3.25;;;6.00;99.90;;;;;;5337581;26;20004;-57
2024/04/17 00:06:12;;;;;;;5.93;2.97;;;6.00;99.90;;;;;;5332103;26;20399;-55
2024/04/17 00:08:38;;;;;;;6.43;2.83;;;5.90;99.90;;;;;;5334274;26;20005;-56
2024/04/17 00:11:04;;;;;;;5.95;3.35;;;5.90;99.90;;;;;;5338195;26;20037;-56
2024/04/17 00:13:31;;;;;;;9.10;3.70;;;5.80;99.90;;;;;;5335885;26;20355;-54
2024/04/17 00:16:02;;;;;;;7.55;3.50;;;5.90;99.90;;;;;;5337562;26;20443;-56
2024/04/17 00:18:28;;;;;;;8.82;4.10;;;5.90;99.90;;;;;;5345650;26;20003;-56
2024/04/17 00:20:54;;;;;;;5.20;3.65;;;5.80;99.90;;;;;;5339172;26;20328;-57
2024/04/17 00:23:20;;;;;;;10.90;4.57;;;5.90;99.90;;;;;;5358055;26;20008;-58
2024/04/17 00:25:46;;;;;;;10.85;5.20;;;6.00;99.90;;;;;;5356760;26;20452;-56
2024/04/17 00:28:11;;;;;;;13.00;4.95;;;6.00;99.90;;;;;;5343185;26;20004;-56
2024/04/17 00:30:37;;;;;;;18.83;6.18;;;6.10;99.90;;;;;;5345125;26;20127;-54
2024/04/17 00:33:03;;;;;;;10.07;5.93;;;6.10;99.90;;;;;;5344221;26;20001;-54
2024/04/17 00:35:28;;;;;;;11.48;5.57;;;6.20;99.90;;;;;;5342746;26;19997;-54
2024/04/17 00:37:55;;;;;;;19.70;7.07;;;6.20;99.90;;;;;;5346825;26;20104;-54
2024/04/17 00:40:20;;;;;;;15.10;6.95;;;6.30;99.90;;;;;;5336871;26;19997;-54
2024/04/17 00:42:46;;;;;;;12.90;6.40;;;6.30;99.90;;;;;;5357385;26;20089;-56
2024/04/17 00:45:12;;;;;;;13.32;6.10;;;6.30;99.90;;;;;;5345770;26;19997;-55
2024/04/17 00:47:37;;;;;;;18.55;6.30;;;6.40;99.90;;;;;;5341361;26;20023;-54
2024/04/17 00:50:03;;;;;;;11.23;5.65;;;6.30;99.90;;;;;;5342540;26;20040;-57
2024/04/17 00:52:29;;;;;;;16.52;7.07;;;6.30;99.90;;;;;;5352585;26;20073;-57
2024/04/17 00:54:55;;;;;;;9.48;5.82;;;6.30;99.90;;;;;;5346800;26;20406;-56
2024/04/17 00:57:21;;;;;;;18.45;5.68;;;6.30;99.90;;;;;;5349873;26;20001;-56
2024/04/17 00:59:47;;;;;;;21.25;5.97;;;6.20;99.90;;;;;;5342098;26;20016;-57
2024/04/17 01:02:13;;;;;;;29.98;9.02;;;6.30;99.90;;;;;;5346395;26;20074;-55
2024/04/17 01:04:39;;;;;;;15.68;6.75;;;6.20;99.90;;;;;;5344404;26;20455;-56
2024/04/17 01:07:05;;;;;;;19.20;6.38;;;6.20;99.90;;;;;;5342971;26;20000;-55
2024/04/17 01:09:30;;;;;;;18.77;7.43;;;6.20;99.90;;;;;;5334721;26;20079;-54
2024/04/17 01:11:56;;;;;;;15.63;6.88;;;6.20;99.90;;;;;;5336175;26;20352;-57
2024/04/17 01:14:21;;;;;;;21.40;7.95;;;6.20;99.90;;;;;;5340722;26;19996;-54
2024/04/17 01:16:47;;;;;;;18.30;7.22;;;6.20;99.90;;;;;;5333355;26;20512;-57
2024/04/17 01:19:13;;;;;;;26.23;8.02;;;6.10;99.90;;;;;;5341608;26;20010;-55
2024/04/17 01:21:39;;;;;;;21.42;7.80;;;6.10;99.90;;;;;;5338266;26;20057;-54
2024/04/17 01:24:05;;;;;;;15.50;8.35;;;6.00;99.90;;;;;;5344282;26;20016;-54
2024/04/17 01:26:31;;;;;;;15.80;7.88;;;5.90;99.90;;;;;;5340987;26;20017;-54
2024/04/17 01:28:56;;;;;;;23.13;9.25;;;5.80;99.90;;;;;;5345464;26;20005;-54
2024/04/17 01:31:22;;;;;;;20.52;7.88;;;5.70;99.90;;;;;;5342032;26;20139;-56
2024/04/17 01:33:47;;;;;;;25.38;7.82;;;5.70;99.90;;;;;;5339454;26;20004;-57
2024/04/17 01:36:13;;;;;;;23.02;9.05;;;5.60;99.90;;;;;;5340947;26;20000;-56
2024/04/17 01:38:39;;;;;;;19.60;9.68;;;5.50;99.90;;;;;;5344724;26;20020;-57
2024/04/17 01:41:04;;;;;;;23.42;9.68;;;5.40;99.90;;;;;;5344559;26;20012;-54
2024/04/17 01:43:31;;;;;;;25.48;9.13;;;5.30;99.90;;;;;;5341437;26;20367;-54
2024/04/17 01:45:57;;;;;;;23.75;8.15;;;5.30;99.90;;;;;;5343942;26;20445;-56
2024/04/17 01:48:23;;;;;;;21.10;8.40;;;5.20;99.90;;;;;;5338098;26;20013;-56
2024/04/17 01:50:48;;;;;;;28.52;9.73;;;5.20;99.90;;;;;;5337709;26;20005;-54
2024/04/17 01:53:14;;;;;;;21.70;8.07;;;5.20;99.90;;;;;;5337275;26;20035;-54
2024/04/17 01:55:40;;;;;;;22.42;10.02;;;5.20;99.90;;;;;;5343288;26;20013;-54
2024/04/17 01:58:05;;;;;;;29.70;8.90;;;5.20;99.90;;;;;;5342270;26;20008;-54
2024/04/17 02:00:33;;;;;;;25.33;9.52;;;5.10;99.90;;;;;;5342870;26;20001;-54
2024/04/17 02:02:58;;;;;;;38.17;9.95;;;5.10;99.90;;;;;;5367289;26;21174;-56
2024/04/17 02:05:24;;;;;;;27.48;9.60;;;5.00;99.90;;;;;;5342758;26;20001;-56
2024/04/17 02:07:49;;;;;;;32.60;9.85;;;4.90;99.90;;;;;;5334872;26;20016;-56
2024/04/17 02:10:15;;;;;;;24.30;8.90;;;4.90;99.90;;;;;;5347822;26;20072;-56
2024/04/17 02:12:41;;;;;;;39.17;10.88;;;4.80;99.90;;;;;;5338935;26;20008;-55
2024/04/17 02:15:07;;;;;;;27.75;11.20;;;4.80;99.90;;;;;;5341192;26;20004;-56
2024/04/17 02:17:32;;;;;;;30.15;10.52;;;4.70;99.90;;;;;;5342232;26;19993;-53
2024/04/17 02:19:58;;;;;;;22.15;10.02;;;4.70;99.90;;;;;;5348468;26;20000;-54
2024/04/17 02:22:23;;;;;;;49.08;11.77;;;4.60;99.90;;;;;;5335325;26;20078;-54
2024/04/17 02:24:49;;;;;;;32.60;11.27;;;4.60;99.90;;;;;;5339568;26;20386;-56
2024/04/17 02:27:14;;;;;;;29.45;11.05;;;4.50;99.90;;;;;;5341914;26;20442;-54
2024/04/17 02:29:40;;;;;;;34.63;11.77;;;4.50;99.90;;;;;;5341328;26;20012;-55
2024/04/17 02:32:06;;;;;;;31.63;12.10;;;4.50;99.90;;;;;;5342165;26;20004;-55
2024/04/17 02:34:32;;;;;;;28.85;12.27;;;4.50;99.90;;;;;;5343283;26;20319;-57
2024/04/17 02:36:57;;;;;;;32.55;11.77;;;4.40;99.90;;;;;;5340017;26;20005;-55
2024/04/17 02:39:23;;;;;;;29.20;11.90;;;4.40;99.90;;;;;;5342347;26;20446;-54
2024/04/17 02:41:48;;;;;;;23.83;11.55;;;4.30;99.90;;;;;;5335193;26;20443;-55
2024/04/17 02:44:14;;;;;;;35.33;12.20;;;4.30;99.90;;;;;;5335600;26;20058;-54
2024/04/17 02:46:40;;;;;;;24.98;10.90;;;4.20;99.90;;;;;;5335873;26;20028;-55
2024/04/17 02:49:05;;;;;;;36.45;12.13;;;4.20;99.90;;;;;;5332963;26;20011;-55
2024/04/17 02:51:31;;;;;;;37.60;11.57;;;4.20;99.90;;;;;;5331393;26;20036;-57
2024/04/17 02:53:56;;;;;;;30.15;11.82;;;4.20;99.90;;;;;;5332354;26;19997;-55
2024/04/17 02:56:22;;;;;;;39.67;12.23;;;4.10;99.90;;;;;;5333681;26;20016;-55
2024/04/17 02:58:47;;;;;;;37.28;13.43;;;4.10;99.90;;;;;;5333669;26;20008;-54
2024/04/17 03:01:14;;;;;;;31.55;13.07;;;4.10;99.90;;;;;;5332282;26;20005;-54
2024/04/17 03:03:40;;;;;;;41.35;15.88;;;4.10;99.90;;;;;;5333566;26;19993;-55
2024/04/17 03:06:06;;;;;;;38.38;15.10;;;4.10;99.90;;;;;;5331267;26;20012;-56
2024/04/17 03:08:32;;;;;;;33.55;14.48;;;4.10;99.90;;;;;;5332073;26;20496;-57
2024/04/17 03:10:58;;;;;;;33.78;13.48;;;4.00;99.90;;;;;;5334559;26;20009;-56
2024/04/17 03:13:24;;;;;;;29.85;13.25;;;4.00;99.90;;;;;;5341003;26;20015;-56
2024/04/17 03:15:49;;;;;;;44.13;13.27;;;4.00;99.90;;;;;;5339063;26;20005;-55
2024/04/17 03:18:15;;;;;;;43.10;14.30;;;4.00;99.90;;;;;;5379214;21;20439;-49
2024/04/17 03:20:40;;;;;;;36.83;13.77;;;4.00;99.90;;;;;;5366402;26;20007;-49
2024/04/17 03:23:06;;;;;;;32.22;13.82;;;4.00;99.90;;;;;;5368446;26;20000;-49
2024/04/17 03:25:32;;;;;;;38.38;13.48;;;4.00;99.90;;;;;;5361228;26;19996;-50
2024/04/17 03:27:57;;;;;;;27.33;13.38;;;4.00;99.90;;;;;;5368401;26;20015;-48
2024/04/17 03:30:23;;;;;;;37.75;13.27;;;4.00;99.90;;;;;;5379193;26;20138;-49
2024/04/17 03:32:48;;;;;;;36.83;14.68;;;3.90;99.90;;;;;;5380645;26;20000;-49
2024/04/17 03:35:14;;;;;;;34.53;14.00;;;3.90;99.90;;;;;;5378593;26;20000;-51
2024/04/17 03:37:39;;;;;;;43.22;14.13;;;3.90;99.90;;;;;;5377713;26;20481;-48
2024/04/17 03:40:06;;;;;;;43.95;14.40;;;3.90;99.90;;;;;;5379500;26;20012;-49
2024/04/17 03:42:31;;;;;;;35.92;15.13;;;3.90;99.90;;;;;;5375296;26;22053;-48
2024/04/17 03:44:58;;;;;;;29.70;13.93;;;3.90;99.90;;;;;;5376934;26;20011;-48
2024/04/17 03:47:24;;;;;;;46.75;15.77;;;4.00;99.90;;;;;;5373741;26;20012;-48
2024/04/17 03:49:49;;;;;;;48.08;17.00;;;4.00;99.90;;;;;;5369065;26;20004;-48
2024/04/17 03:52:15;;;;;;;43.75;15.50;;;4.00;99.90;;;;;;5370448;26;20023;-48
2024/04/17 03:54:40;;;;;;;43.10;15.77;;;4.00;99.90;;;;;;5372502;26;19993;-50
2024/04/17 03:57:06;;;;;;;38.13;15.93;;;4.00;99.90;;;;;;5371650;26;19996;-48
2024/04/17 03:59:31;;;;;;;49.85;17.88;;;4.10;99.90;;;;;;5371421;26;19996;-48
2024/04/17 04:01:57;;;;;;;54.72;16.33;;;4.10;99.90;;;;;;5371563;26;20434;-51
2024/04/17 04:04:23;;;;;;;58.13;18.02;;;4.10;99.90;;;;;;5369992;26;20000;-49
2024/04/17 04:06:49;;;;;;;57.75;18.30;;;4.10;99.90;;;;;;5370512;26;20442;-49
2024/04/17 04:09:15;;;;;;;49.47;17.20;;;4.10;99.90;;;;;;5369859;26;19992;-47
2024/04/17 04:11:41;;;;;;;41.92;16.33;;;4.10;99.90;;;;;;5373133;26;20350;-48
2024/04/17 04:14:07;;;;;;;52.17;17.10;;;4.10;99.90;;;;;;5368444;26;19996;-50
2024/04/17 04:16:33;;;;;;;59.90;18.65;;;4.00;99.90;;;;;;5371607;26;20028;-50
2024/04/17 04:18:58;;;;;;;56.80;17.55;;;4.00;99.90;;;;;;5368082;26;20019;-49
2024/04/17 04:21:24;;;;;;;54.33;17.80;;;4.00;99.90;;;;;;5374193;26;20000;-49
2024/04/17 04:23:50;;;;;;;49.83;17.02;;;4.00;99.90;;;;;;5369825;26;20007;-51
2024/04/17 04:26:15;;;;;;;47.92;18.67;;;4.00;99.90;;;;;;5380627;26;20007;-48
2024/04/17 04:28:41;;;;;;;48.60;17.77;;;3.90;99.90;;;;;;5376636;26;19996;-49
2024/04/17 04:31:07;;;;;;;42.78;15.32;;;3.90;99.90;;;;;;5384741;26;19996;-48
2024/04/17 04:33:32;;;;;;;45.25;15.77;;;3.80;99.90;;;;;;5374391;26;20011;-53
2024/04/17 04:35:58;;;;;;;55.88;17.88;;;3.80;99.90;;;;;;5378868;26;20452;-48
2024/04/17 04:38:24;;;;;;;55.03;18.58;;;3.80;99.90;;;;;;5373554;26;19996;-48
2024/04/17 04:40:50;;;;;;;52.55;17.63;;;3.70;99.90;;;;;;5380128;26;20007;-48
2024/04/17 04:43:15;;;;;;;46.95;17.20;;;3.70;99.90;;;;;;5375899;26;20008;-48
2024/04/17 04:45:41;;;;;;;65.85;18.92;;;3.70;99.90;;;;;;5375322;26;19992;-50
2024/04/17 04:48:06;;;;;;;60.05;19.75;;;3.70;99.90;;;;;;5378105;26;20001;-48
2024/04/17 04:50:33;;;;;;;61.25;19.85;;;3.70;99.90;;;;;;5378596;26;19997;-49
2024/04/17 04:52:58;;;;;;;56.42;19.13;;;3.70;99.90;;;;;;5380122;26;20004;-49
2024/04/17 04:55:24;;;;;;;61.28;20.27;;;3.70;99.90;;;;;;5378058;26;20031;-48
2024/04/17 04:57:49;;;;;;;48.05;17.75;;;3.80;99.90;;;;;;5377103;26;19996;-48
2024/04/17 05:00:15;;;;;;;63.85;18.67;;;3.90;99.90;;;;;;5378141;26;20003;-50
2024/04/17 05:02:41;;;;;;;56.83;18.83;;;3.90;99.90;;;;;;5378778;26;20424;-48
2024/04/17 05:05:06;;;;;;;50.20;17.77;;;3.90;99.90;;;;;;5371976;26;20023;-48
2024/04/17 05:07:32;;;;;;;50.40;17.80;;;3.90;99.90;;;;;;5377375;26;20062;-48
2024/04/17 05:09:58;;;;;;;44.83;17.30;;;3.90;99.90;;;;;;5377430;26;20081;-48
2024/04/17 05:12:23;;;;;;;52.88;17.75;;;4.00;99.90;;;;;;5376127;26;20602;-51
2024/04/17 05:14:49;;;;;;;48.38;19.05;;;4.00;99.90;;;;;;5370864;26;20011;-54
2024/04/17 05:17:14;;;;;;;53.47;18.95;;;4.10;99.90;;;;;;5376910;26;20055;-50
2024/04/17 05:19:40;;;;;;;44.55;17.10;;;4.20;99.90;;;;;;5378937;26;20028;-49
2024/04/17 05:22:05;;;;;;;47.03;18.33;;;4.20;99.90;;;;;;5376529;26;20009;-48
2024/04/17 05:24:31;;;;;;;50.60;18.70;;;4.30;99.90;;;;;;5378407;26;20015;-51
2024/04/17 05:26:56;;;;;;;47.38;17.13;;;4.30;99.90;;;;;;5376914;26;20012;-53
2024/04/17 05:29:22;;;;;;;47.20;16.52;;;4.40;99.90;;;;;;5375336;26;20012;-52
2024/04/17 05:31:48;;;;;;;53.67;17.58;;;4.50;99.90;;;;;;5379427;26;19996;-50
2024/04/17 05:34:13;;;;;;;45.70;17.35;;;4.60;99.90;;;;;;5376693;26;20356;-49
2024/04/17 05:36:39;;;;;;;56.63;19.20;;;4.70;99.90;;;;;;5378061;26;20468;-51
2024/04/17 05:39:05;;;;;;;48.70;17.63;;;4.80;99.90;;;;;;5375002;26;20096;-51
2024/04/17 05:41:31;;;;;;;55.33;17.98;;;4.80;99.90;;;;;;5377223;26;20016;-49
2024/04/17 05:43:56;;;;;;;49.40;16.77;;;4.80;99.90;;;;;;5377732;26;20004;-48
2024/04/17 05:46:25;;;;;;;41.22;15.48;;;4.90;99.90;;;;;;5378193;26;20139;-53
2024/04/17 05:48:54;;;;;;;41.38;15.85;;;5.10;99.90;;;;;;5362205;26;20015;-48
2024/04/17 05:51:19;;;;;;;46.47;16.10;;;5.10;99.90;;;;;;5376692;26;20011;-48
2024/04/17 05:53:45;;;;;;;42.85;16.85;;;5.10;99.90;;;;;;5367309;26;20450;-50
2024/04/17 05:56:11;;;;;;;46.72;16.23;;;5.20;99.90;;;;;;5371054;26;22447;-48
2024/04/17 05:58:36;;;;;;;39.67;17.10;;;5.20;99.90;;;;;;5370474;26;20473;-48
2024/04/17 06:01:02;;;;;;;35.08;15.68;;;5.30;99.90;;;;;;5369569;26;19993;-49
2024/04/17 06:03:28;;;;;;;45.45;16.48;;;5.40;99.90;;;;;;5371440;26;20014;-49
2024/04/17 06:05:54;;;;;;;46.40;15.88;;;5.40;99.90;;;;;;5366015;26;20088;-49
2024/04/17 06:08:19;;;;;;;46.28;16.95;;;5.50;99.90;;;;;;5370552;26;19996;-51
2024/04/17 06:10:45;;;;;;;50.70;16.05;;;5.60;99.90;;;;;;5365691;26;19996;-48
2024/04/17 06:13:10;;;;;;;43.90;16.30;;;5.50;99.90;;;;;;5368308;26;20016;-49
2024/04/17 06:15:36;;;;;;;33.15;14.68;;;5.70;99.90;;;;;;5368419;26;20018;-50
2024/04/17 06:18:06;;;;;;;35.17;15.15;;;5.60;99.90;;;;;;5369812;26;20000;-52
2024/04/17 06:20:31;;;;;;;41.05;14.98;;;5.70;99.90;;;;;;5367863;26;20468;-48
2024/04/17 06:22:57;;;;;;;35.58;14.18;;;5.80;99.90;;;;;;5366936;26;20010;-48
2024/04/17 06:25:23;;;;;;;43.25;18.60;;;5.70;99.90;;;;;;5375942;26;20327;-49
2024/04/17 06:27:48;;;;;;;38.33;16.08;;;5.70;99.90;;;;;;5372926;26;20020;-51
2024/04/17 06:30:14;;;;;;;46.63;18.35;;;5.80;99.90;;;;;;5372538;26;20012;-51
2024/04/17 06:32:40;;;;;;;37.17;17.38;;;5.70;99.90;;;;;;5366514;26;20014;-49
2024/04/17 06:35:06;;;;;;;50.90;18.02;;;5.90;99.90;;;;;;5360041;26;20106;-49
2024/04/17 06:37:31;;;;;;;46.15;18.50;;;6.00;99.90;;;;;;5371353;26;19996;-48
2024/04/17 06:39:57;;;;;;;45.40;19.50;;;5.90;99.90;;;;;;5366531;26;20000;-49
2024/04/17 06:42:22;;;;;;;39.47;20.23;;;5.90;99.90;;;;;;5387634;26;20000;-51
2024/04/17 06:44:48;;;;;;;45.50;18.95;;;6.10;99.90;;;;;;5374560;26;19997;-48
2024/04/17 06:47:14;;;;;;;38.33;18.90;;;6.00;99.90;;;;;;5369751;26;20000;-51
2024/04/17 06:49:40;;;;;;;40.15;18.73;;;6.00;99.90;;;;;;5363412;26;22011;-48
2024/04/17 06:52:06;;;;;;;41.35;18.38;;;6.00;99.90;;;;;;5378528;26;20000;-49
2024/04/17 06:54:31;;;;;;;44.83;19.70;;;6.20;99.90;;;;;;5370986;26;19993;-50
2024/04/17 06:56:57;;;;;;;36.47;16.77;;;6.20;99.90;;;;;;5371397;26;19997;-49
2024/04/17 06:59:22;;;;;;;40.90;18.52;;;6.30;99.90;;;;;;5377741;26;20011;-53
2024/04/17 07:01:48;;;;;;;40.70;16.63;;;6.30;99.90;;;;;;5371744;26;20024;-49
2024/04/17 07:04:14;;;;;;;36.55;17.17;;;6.40;99.90;;;;;;5378891;26;20007;-50
2024/04/17 07:06:40;;;;;;;33.30;15.73;;;6.70;99.90;;;;;;5377744;26;20069;-49
2024/04/17 07:09:06;;;;;;;29.85;15.30;;;6.80;99.90;;;;;;5378781;26;20015;-51
2024/04/17 07:11:32;;;;;;;25.17;13.90;;;6.90;99.90;;;;;;5381114;26;20008;-52
2024/04/17 07:13:59;;;;;;;31.23;12.68;;;7.00;99.90;;;;;;5367468;26;20020;-52
2024/04/17 07:16:24;;;;;;;22.98;12.38;;;7.10;99.90;;;;;;5372584;26;19997;-50
2024/04/17 07:18:50;;;;;;;30.65;12.73;;;7.00;99.90;;;;;;5372193;26;19997;-50
2024/04/17 07:21:16;;;;;;;22.73;11.40;;;7.10;99.90;;;;;;5374872;26;19996;-49
2024/04/17 07:23:43;;;;;;;26.73;12.18;;;7.00;99.90;;;;;;5376100;26;20028;-50
2024/04/17 07:26:10;;;;;;;32.65;13.55;;;6.90;99.90;;;;;;5372119;26;20025;-50
2024/04/17 07:28:36;;;;;;;33.20;14.45;;;6.80;99.90;;;;;;5376743;26;20077;-49
2024/04/17 07:31:01;;;;;;;37.13;15.57;;;6.60;99.90;;;;;;5337848;26;20016;-50
2024/04/17 07:33:27;;;;;;;27.90;15.90;;;6.70;99.90;;;;;;5404635;26;20011;-49
2024/04/17 07:35:59;;;;;;;35.40;16.17;;;6.70;99.90;;;;;;5413714;26;20437;-49
2024/04/17 07:38:25;;;;;;;33.53;16.42;;;6.80;99.90;;;;;;5414127;26;20006;-49
2024/04/17 07:41:00;;;;;;;37.22;16.92;;;6.80;99.90;;;;;;5416222;26;20031;-50
2024/04/17 07:43:33;;;;;;;32.67;15.82;;;6.80;99.90;;;;;;5406227;26;19996;-49
2024/04/17 07:45:59;;;;;;;36.20;16.77;;;6.80;99.90;;;;;;5408046;26;20989;-48
2024/04/17 07:48:25;;;;;;;27.13;14.35;;;6.70;99.90;;;;;;5406780;26;20014;-53
2024/04/17 07:50:51;;;;;;;35.42;14.68;;;6.60;99.90;;;;;;5407190;26;19991;-51
2024/04/17 07:53:17;;;;;;;26.60;13.55;;;6.50;99.90;;;;;;5414502;26;20018;-50
2024/04/17 07:55:42;;;;;;;24.65;14.02;;;6.50;99.90;;;;;;5414165;26;20334;-48
2024/04/17 07:58:08;;;;;;;24.23;12.35;;;6.40;99.90;;;;;;5410701;26;20013;-48
2024/04/17 08:00:35;;;;;;;27.92;12.23;;;6.20;99.90;;;;;;5411717;26;20010;-48
2024/04/17 08:03:00;;;;;;;25.20;11.50;;;6.20;99.90;;;;;;5408162;26;20010;-48
2024/04/17 08:05:26;;;;;;;19.75;9.40;;;6.40;99.90;;;;;;5411548;26;19996;-51
2024/04/17 08:07:53;;;;;;;17.23;9.57;;;6.50;99.90;;;;;;5412318;26;20337;-52
2024/04/17 08:10:18;;;;;;;14.38;7.82;;;6.50;99.90;;;;;;5413532;26;19995;-48
2024/04/17 08:12:44;;;;;;;14.57;6.95;;;6.50;99.90;;;;;;5393939;26;20024;-50
2024/04/17 08:15:12;;;;;;;12.32;7.10;;;6.40;99.90;;;;;;5372330;26;20019;-48
2024/04/17 08:17:38;;;;;;;15.85;7.72;;;6.50;99.90;;;;;;5371680;26;20001;-50
2024/04/17 08:20:04;;;;;;;15.95;6.50;;;6.40;99.90;;;;;;5377892;26;20685;-48
2024/04/17 08:22:29;;;;;;;18.08;7.45;;;6.60;99.90;;;;;;5374354;26;19996;-53
2024/04/17 08:24:55;;;;;;;23.90;7.88;;;6.70;99.90;;;;;;5378994;26;20015;-48
2024/04/17 08:27:21;;;;;;;13.75;6.85;;;6.80;99.90;;;;;;5376353;26;20000;-50
2024/04/17 08:29:46;;;;;;;16.77;9.43;;;7.10;99.90;;;;;;5374154;26;20404;-50
2024/04/17 08:32:12;;;;;;;11.85;7.38;;;7.10;99.90;;;;;;5377559;26;20018;-49
2024/04/17 08:34:37;;;;;;;14.38;7.25;;;7.20;99.90;;;;;;5375452;26;20000;-49
2024/04/17 08:37:03;;;;;;;19.27;9.45;;;7.40;99.90;;;;;;5380543;26;20453;-56
2024/04/17 08:39:29;;;;;;;16.67;8.10;;;7.50;99.90;;;;;;5372267;26;20015;-49
2024/04/17 08:41:55;;;;;;;10.30;7.28;;;7.60;99.90;;;;;;5373722;26;20011;-51
2024/04/17 08:44:33;;;;;;;11.00;7.53;;;7.70;99.90;;;;;;5374333;26;20000;-50
2024/04/17 08:47:02;;;;;;;9.85;5.72;;;7.60;99.90;;;;;;5374409;26;20011;-50
2024/04/17 08:49:30;;;;;;;15.63;6.20;;;7.60;99.90;;;;;;5377666;26;20014;-49
2024/04/17 08:51:57;;;;;;;17.58;7.82;;;7.40;99.90;;;;;;5369754;26;20007;-49
2024/04/17 08:54:23;;;;;;;11.88;4.35;;;7.30;99.90;;;;;;5374090;26;20130;-49
2024/04/17 08:56:48;;;;;;;8.15;3.97;;;7.20;99.90;;;;;;5376445;26;20039;-50
2024/04/17 08:59:14;;;;;;;6.22;3.95;;;7.10;99.90;;;;;;5370797;26;19996;-49
2024/04/17 09:01:41;;;;;;;8.18;3.40;;;7.10;99.90;;;;;;5372109;26;20016;-50
2024/04/17 09:04:07;;;;;;;6.95;3.10;;;7.10;99.90;;;;;;5373648;26;20015;-49
2024/04/17 09:06:37;;;;;;;9.07;3.70;;;7.10;99.90;;;;;;5380013;26;20354;-50
2024/04/17 09:09:04;;;;;;;3.97;3.00;;;7.30;99.90;;;;;;5375244;26;20036;-49
2024/04/17 09:11:31;;;;;;;5.32;2.42;;;7.40;99.90;;;;;;5379009;26;20012;-52
2024/04/17 09:13:56;;;;;;;5.18;2.03;;;7.50;99.90;;;;;;5359841;26;20011;-48
2024/04/17 09:16:22;;;;;;;3.00;1.23;;;7.50;99.90;;;;;;5374642;26;19996;-52
2024/04/17 09:18:48;;;;;;;4.93;1.05;;;7.50;99.90;;;;;;5369755;26;20413;-51
2024/04/17 09:21:14;;;;;;;1.58;1.33;;;7.80;99.90;;;;;;5373695;26;20011;-50
2024/04/17 09:23:40;;;;;;;1.88;1.20;;;7.90;99.90;;;;;;5376355;26;20414;-51
2024/04/17 09:26:17;;;;;;;2.75;1.38;;;8.00;99.90;;;;;;5378818;26;20004;-50
2024/04/17 09:28:43;;;;;;;3.75;1.60;;;7.80;99.90;;;;;;5368119;26;20007;-49
2024/04/17 09:31:10;;;;;;;3.65;1.38;;;7.50;99.90;;;;;;5375610;26;20008;-51
2024/04/17 09:33:45;;;;;;;2.78;1.45;;;7.30;99.90;;;;;;5378307;26;20345;-51
2024/04/17 09:36:11;;;;;;;4.95;1.70;;;7.30;99.90;;;;;;5380261;26;20004;-50
2024/04/17 09:38:36;;;;;;;4.78;1.48;;;7.30;99.90;;;;;;5369288;26;20066;-49
2024/04/17 09:41:02;;;;;;;2.63;1.55;;;7.30;99.90;;;;;;5377559;26;20000;-49
2024/04/17 09:43:29;;;;;;;3.88;1.83;;;7.50;99.90;;;;;;5371645;26;19997;-49
2024/04/17 09:45:59;;;;;;;3.13;2.20;;;7.50;99.90;;;;;;5374714;26;20008;-49
2024/04/17 09:48:29;;;;;;;7.05;2.20;;;7.70;99.90;;;;;;5332943;26;19996;-49
2024/04/17 09:51:05;;;;;;;4.47;2.38;;;7.90;99.90;;;;;;5371966;26;21382;-51
2024/04/17 09:53:34;;;;;;;3.10;1.95;;;8.00;99.90;;;;;;5370192;26;20011;-49
2024/04/17 09:56:00;;;;;;;4.45;2.20;;;8.40;99.90;;;;;;5377441;26;20454;-50
2024/04/17 09:58:32;;;;;;;2.95;1.73;;;8.60;99.90;;;;;;5370148;26;19992;-50
2024/04/17 10:01:06;;;;;;;3.85;1.33;;;9.20;99.90;;;;;;5378692;26;20000;-49
2024/04/17 10:03:33;;;;;;;6.93;1.77;;;9.30;99.90;;;;;;5373201;26;20118;-52
2024/04/17 10:06:00;;;;;;;5.10;1.75;;;9.50;99.90;;;;;;5375617;26;19997;-49
2024/04/17 10:08:31;;;;;;;3.50;1.42;;;9.40;99.90;;;;;;5363367;21;20075;-52
2024/04/17 10:10:58;;;;;;;3.33;1.40;;;9.30;99.90;;;;;;5311930;27;20016;-50
2024/04/17 10:13:24;;;;;;;2.50;1.30;;;9.50;99.90;;;;;;5306723;26;20013;-50
2024/04/17 10:15:50;;;;;;;3.60;1.63;;;9.70;99.90;;;;;;5346030;26;20074;-52
2024/04/17 10:18:16;;;;;;;5.30;1.20;;;10.20;99.90;;;;;;5346299;26;19997;-47
2024/04/17 10:20:42;;;;;;;3.15;1.27;;;10.80;99.90;;;;;;5346193;26;20007;-52
2024/04/17 10:23:09;;;;;;;1.50;1.23;;;11.50;99.90;;;;;;5345873;26;19996;-51
2024/04/17 10:25:57;;;;;;;2.30;1.23;;;12.00;99.90;;;;;;5345567;26;20001;-51
2024/04/17 10:28:24;;;;;;;1.50;0.98;;;11.90;99.90;;;;;;5335206;26;20719;-50
2024/04/17 10:30:53;;;;;;;3.42;1.10;;;11.70;99.90;;;;;;5311228;27;20398;-51
2024/04/17 10:33:25;;;;;;;1.90;1.38;;;11.80;99.90;;;;;;5311478;27;20021;-52
2024/04/17 10:35:55;;;;;;;3.37;1.47;;;12.60;99.90;;;;;;5310404;27;20444;-50
2024/04/17 10:38:28;;;;;;;1.25;1.00;;;13.00;99.90;;;;;;5311690;27;20002;-52
2024/04/17 10:40:55;;;;;;;;;;;13.40;99.90;;;;;;5311779;27;20451;-51
2024/04/17 10:43:25;;;;;;;1.42;1.30;;;13.30;99.90;;;;;;5311495;27;19927;-51
2024/04/17 10:45:56;;;;;;;1.80;0.95;;;12.80;99.90;;;;;;5280965;27;20080;-53
2024/04/17 10:48:23;;;;;;;3.95;1.23;;;12.50;99.90;;;;;;5310999;27;20371;-52
2024/04/17 10:50:50;;;;;;;2.45;1.80;;;12.20;99.90;;;;;;5311241;27;20006;-51
2024/04/17 10:53:16;;;;;;;1.88;1.35;;;11.80;99.90;;;;;;5311003;27;20002;-52
2024/04/17 10:55:42;;;;;;;2.70;1.92;;;11.40;99.90;;;;;;5311162;27;20005;-53
2024/04/17 10:58:11;;;;;;;2.00;1.25;;;11.40;99.90;;;;;;5311013;27;20006;-50
2024/04/17 11:00:36;;;;;;;4.10;1.27;;;11.00;99.90;;;;;;5310894;27;20053;-52
2024/04/17 11:03:02;;;;;;;4.15;1.52;;;10.90;99.90;;;;;;5310944;26;20455;-51
2024/04/17 11:05:30;;;;;;;2.30;1.48;;;10.90;99.90;;;;;;5310187;27;20002;-52
2024/04/17 11:07:56;;;;;;;2.63;1.60;;;11.10;99.90;;;;;;5310706;27;19998;-51
2024/04/17 11:10:22;;;;;;;9.98;2.88;;;10.90;99.90;;;;;;5311046;27;20002;-49
2024/04/17 11:12:48;;;;;;;5.10;2.63;;;10.50;99.90;;;;;;5311004;27;20365;-51
2024/04/17 11:15:14;;;;;;;6.78;2.47;;;10.20;99.90;;;;;;5340352;26;20009;-50
2024/04/17 11:17:42;;;;;;;6.20;3.35;;;9.80;99.90;;;;;;5345176;26;19997;-51
2024/04/17 11:20:10;;;;;;;1.88;1.27;;;9.20;99.90;;;;;;5314473;26;20001;-54
2024/04/17 11:22:35;;;;;;;2.97;1.27;;;8.70;99.90;;;;;;5345058;26;20024;-48
2024/04/17 11:25:04;;;;;;;3.50;1.90;;;8.20;99.90;;;;;;5323698;26;20317;-51
2024/04/17 11:27:30;;;;;;;4.00;1.45;;;8.10;99.90;;;;;;5318976;26;19996;-51
2024/04/17 11:29:57;;;;;;;6.28;1.88;;;8.00;99.90;;;;;;5345317;26;20463;-51
2024/04/17 11:32:22;;;;;;;3.40;2.30;;;8.10;99.90;;;;;;5344825;26;20000;-49
2024/04/17 11:34:48;;;;;;;3.85;2.10;;;8.40;99.90;;;;;;5344775;26;20008;-50
2024/04/17 11:37:14;;;;;;;5.03;1.83;;;8.60;99.90;;;;;;5344814;26;20001;-50
2024/04/17 11:39:40;;;;;;;2.85;1.42;;;8.90;99.90;;;;;;5344345;26;20419;-48
2024/04/17 11:42:11;;;;;;;3.10;1.17;;;9.60;99.90;;;;;;5344865;26;20012;-51
2024/04/17 11:44:41;;;;;;;3.88;1.13;;;10.10;99.90;;;;;;5322428;26;20028;-52
2024/04/17 11:47:12;;;;;;;9.13;1.10;;;10.60;99.90;;;;;;5281111;27;20221;-51
2024/04/17 11:49:37;;;;;;;9.65;2.38;;;10.90;99.90;;;;;;5372391;26;20032;-50
2024/04/17 11:52:06;;;;;;;1.25;1.10;;;10.80;99.90;;;;;;5382699;26;20011;-51
2024/04/17 11:54:32;;;;;;;2.72;0.93;;;11.10;99.90;;;;;;5380791;26;20385;-48
2024/04/17 11:56:58;;;;;;;2.55;1.50;;;11.30;99.90;;;;;;5347951;26;20000;-48
2024/04/17 11:59:24;;;;;;;2.47;2.00;;;11.10;99.90;;;;;;5347739;26;20015;-49
2024/04/17 12:01:49;;;;;;;2.42;1.60;;;11.20;99.90;;;;;;5347490;26;19997;-50
2024/04/17 12:04:15;;;;;;;3.20;1.83;;;11.30;99.90;;;;;;5347351;26;20004;-47
2024/04/17 12:06:40;;;;;;;2.33;1.58;;;11.10;99.90;;;;;;5348055;26;20012;-46
2024/04/17 12:09:06;;;;;;;2.65;1.58;;;11.10;99.90;;;;;;5347558;26;20005;-47
2024/04/17 12:11:31;;;;;;;6.22;1.88;;;11.10;99.90;;;;;;5347686;26;20494;-48
2024/04/17 12:13:57;;;;;;;2.15;1.55;;;11.60;99.90;;;;;;5373798;26;20028;-46
2024/04/17 12:16:23;;;;;;;5.40;1.38;;;11.90;99.90;;;;;;5345679;26;20005;-49
2024/04/17 12:18:48;;;;;;;4.78;2.25;;;11.90;99.90;;;;;;5347437;26;20008;-46
2024/04/17 12:21:14;;;;;;;5.15;2.95;;;12.20;99.90;;;;;;5346411;26;20008;-49
2024/04/17 12:23:41;;;;;;;2.97;1.50;;;11.90;99.90;;;;;;5346982;26;20001;-48
2024/04/17 12:28:51;;;;;;;9.02;2.33;;;12.00;99.90;;;;;;5347403;26;20012;-49
2024/04/17 12:31:18;;;;;;;2.00;1.55;;;12.30;99.90;;;;;;5347582;26;20001;-47
2024/04/17 12:33:44;;;;;;;18.05;2.55;;;12.70;99.90;;;;;;5347436;26;20005;-47
2024/04/17 12:36:10;;;;;;;5.32;2.03;;;12.50;99.90;;;;;;5347396;26;20012;-50
2024/04/17 12:38:35;;;;;;;4.95;1.70;;;12.40;99.90;;;;;;5347373;26;20005;-48
2024/04/17 12:41:01;;;;;;;4.38;1.55;;;12.10;99.90;;;;;;5316923;26;20001;-49